sensor_id;sensor_type;location;lat;lon;timestamp;P1;durP1;ratioP1;P2;durP2;ratioP2
52124;SDS011;38119;52.710;6.398;2023-06-14T00:01:41;6.72;;;2.72;;
52124;SDS011;38119;52.710;6.398;2023-06-14T00:04:10;4.65;;;2.70;;
52124;SDS011;38119;52.710;6.398;2023-06-14T00:06:37;5.25;;;2.58;;
52124;SDS011;38119;52.710;6.398;2023-06-14T00:09:03;9.43;;;2.78;;
52124;SDS011;38119;52.710;6.398;2023-06-14T00:11:30;6.95;;;2.80;;
52124;SDS011;38119;52.710;6.398;2023-06-14T00:13:56;9.07;;;2.88;;
52124;SDS011;38119;52.710;6.398;2023-06-14T00:16:22;7.82;;;3.00;;
52124;SDS011;38119;52.710;6.398;2023-06-14T00:18:48;7.18;;;2.90;;
52124;SDS011;38119;52.710;6.398;2023-06-14T00:21:14;4.75;;;2.75;;
52124;SDS011;38119;52.710;6.398;2023-06-14T00:23:40;16.27;;;3.03;;
52124;SDS011;38119;52.710;6.398;2023-06-14T00:26:05;6.43;;;2.50;;
52124;SDS011;38119;52.710;6.398;2023-06-14T00:28:31;7.57;;;2.60;;
52124;SDS011;38119;52.710;6.398;2023-06-14T00:30:56;5.75;;;2.95;;
52124;SDS011;38119;52.710;6.398;2023-06-14T00:33:22;8.07;;;3.13;;
52124;SDS011;38119;52.710;6.398;2023-06-14T00:35:47;6.70;;;2.95;;
52124;SDS011;38119;52.710;6.398;2023-06-14T00:38:13;6.93;;;2.75;;
52124;SDS011;38119;52.710;6.398;2023-06-14T00:40:39;7.30;;;2.80;;
52124;SDS011;38119;52.710;6.398;2023-06-14T00:43:04;5.97;;;2.50;;
52124;SDS011;38119;52.710;6.398;2023-06-14T00:45:31;9.20;;;2.90;;
52124;SDS011;38119;52.710;6.398;2023-06-14T00:48:00;5.35;;;2.50;;
52124;SDS011;38119;52.710;6.398;2023-06-14T00:50:27;6.50;;;2.58;;
52124;SDS011;38119;52.710;6.398;2023-06-14T00:52:54;9.60;;;2.88;;
52124;SDS011;38119;52.710;6.398;2023-06-14T00:55:21;7.13;;;2.90;;
52124;SDS011;38119;52.710;6.398;2023-06-14T00:57:47;7.35;;;2.70;;
52124;SDS011;38119;52.710;6.398;2023-06-14T01:00:14;5.30;;;2.58;;
52124;SDS011;38119;52.710;6.398;2023-06-14T01:02:40;5.63;;;2.25;;
52124;SDS011;38119;52.710;6.398;2023-06-14T01:05:06;5.93;;;2.80;;
52124;SDS011;38119;52.710;6.398;2023-06-14T01:10:35;6.60;;;2.55;;
52124;SDS011;38119;52.710;6.398;2023-06-14T01:15:45;7.95;;;2.70;;
52124;SDS011;38119;52.710;6.398;2023-06-14T01:18:12;6.72;;;2.65;;
52124;SDS011;38119;52.710;6.398;2023-06-14T01:20:44;5.68;;;2.75;;
52124;SDS011;38119;52.710;6.398;2023-06-14T01:23:14;5.47;;;2.50;;
52124;SDS011;38119;52.710;6.398;2023-06-14T01:25:43;6.05;;;2.22;;
52124;SDS011;38119;52.710;6.398;2023-06-14T01:28:09;4.80;;;3.28;;
52124;SDS011;38119;52.710;6.398;2023-06-14T01:30:37;4.82;;;2.38;;
52124;SDS011;38119;52.710;6.398;2023-06-14T01:33:09;6.20;;;2.72;;
52124;SDS011;38119;52.710;6.398;2023-06-14T01:35:40;4.63;;;2.60;;
52124;SDS011;38119;52.710;6.398;2023-06-14T01:38:10;6.85;;;2.85;;
52124;SDS011;38119;52.710;6.398;2023-06-14T01:40:37;4.75;;;2.58;;
52124;SDS011;38119;52.710;6.398;2023-06-14T01:43:04;7.55;;;2.80;;
52124;SDS011;38119;52.710;6.398;2023-06-14T01:45:31;8.38;;;2.60;;
52124;SDS011;38119;52.710;6.398;2023-06-14T01:47:57;5.20;;;2.45;;
52124;SDS011;38119;52.710;6.398;2023-06-14T01:50:23;5.75;;;2.47;;
52124;SDS011;38119;52.710;6.398;2023-06-14T01:52:52;6.00;;;2.58;;
52124;SDS011;38119;52.710;6.398;2023-06-14T01:55:18;7.20;;;2.55;;
52124;SDS011;38119;52.710;6.398;2023-06-14T01:57:43;7.13;;;2.83;;
52124;SDS011;38119;52.710;6.398;2023-06-14T02:00:09;9.30;;;3.00;;
52124;SDS011;38119;52.710;6.398;2023-06-14T02:02:37;5.40;;;2.80;;
52124;SDS011;38119;52.710;6.398;2023-06-14T02:05:03;7.32;;;2.58;;
52124;SDS011;38119;52.710;6.398;2023-06-14T02:07:29;6.22;;;3.00;;
52124;SDS011;38119;52.710;6.398;2023-06-14T02:09:55;7.15;;;2.92;;
52124;SDS011;38119;52.710;6.398;2023-06-14T02:12:20;5.47;;;2.45;;
52124;SDS011;38119;52.710;6.398;2023-06-14T02:14:46;7.43;;;2.78;;
52124;SDS011;38119;52.710;6.398;2023-06-14T02:17:12;7.88;;;2.80;;
52124;SDS011;38119;52.710;6.398;2023-06-14T02:19:37;5.18;;;2.60;;
52124;SDS011;38119;52.710;6.398;2023-06-14T02:22:03;5.38;;;2.60;;
52124;SDS011;38119;52.710;6.398;2023-06-14T02:24:29;7.32;;;2.80;;
52124;SDS011;38119;52.710;6.398;2023-06-14T02:26:55;6.10;;;2.88;;
52124;SDS011;38119;52.710;6.398;2023-06-14T02:29:20;8.15;;;2.80;;
52124;SDS011;38119;52.710;6.398;2023-06-14T02:31:46;3.40;;;2.35;;
52124;SDS011;38119;52.710;6.398;2023-06-14T02:34:13;7.50;;;2.70;;
52124;SDS011;38119;52.710;6.398;2023-06-14T02:36:41;5.97;;;2.80;;
52124;SDS011;38119;52.710;6.398;2023-06-14T02:39:07;7.07;;;2.97;;
52124;SDS011;38119;52.710;6.398;2023-06-14T02:41:37;4.70;;;2.60;;
52124;SDS011;38119;52.710;6.398;2023-06-14T02:44:03;6.30;;;3.03;;
52124;SDS011;38119;52.710;6.398;2023-06-14T02:46:28;7.88;;;2.83;;
52124;SDS011;38119;52.710;6.398;2023-06-14T02:48:54;4.38;;;2.78;;
52124;SDS011;38119;52.710;6.398;2023-06-14T02:51:19;4.70;;;2.70;;
52124;SDS011;38119;52.710;6.398;2023-06-14T02:53:45;5.82;;;2.60;;
52124;SDS011;38119;52.710;6.398;2023-06-14T02:56:11;8.40;;;3.00;;
52124;SDS011;38119;52.710;6.398;2023-06-14T02:58:37;9.15;;;2.92;;
52124;SDS011;38119;52.710;6.398;2023-06-14T03:01:04;4.47;;;2.88;;
52124;SDS011;38119;52.710;6.398;2023-06-14T03:03:32;5.05;;;2.65;;
52124;SDS011;38119;52.710;6.398;2023-06-14T03:05:58;5.22;;;2.60;;
52124;SDS011;38119;52.710;6.398;2023-06-14T03:08:30;11.95;;;2.88;;
52124;SDS011;38119;52.710;6.398;2023-06-14T03:11:03;9.98;;;2.95;;
52124;SDS011;38119;52.710;6.398;2023-06-14T03:13:33;6.80;;;2.70;;
52124;SDS011;38119;52.710;6.398;2023-06-14T03:15:59;7.70;;;2.95;;
52124;SDS011;38119;52.710;6.398;2023-06-14T03:18:27;4.60;;;2.45;;
52124;SDS011;38119;52.710;6.398;2023-06-14T03:21:00;5.75;;;3.03;;
52124;SDS011;38119;52.710;6.398;2023-06-14T03:23:26;5.90;;;2.80;;
52124;SDS011;38119;52.710;6.398;2023-06-14T03:25:52;5.78;;;2.72;;
52124;SDS011;38119;52.710;6.398;2023-06-14T03:28:18;7.65;;;2.90;;
52124;SDS011;38119;52.710;6.398;2023-06-14T03:30:43;7.07;;;2.92;;
52124;SDS011;38119;52.710;6.398;2023-06-14T03:33:09;6.45;;;2.80;;
52124;SDS011;38119;52.710;6.398;2023-06-14T03:35:35;8.73;;;3.10;;
52124;SDS011;38119;52.710;6.398;2023-06-14T03:38:01;7.20;;;3.00;;
52124;SDS011;38119;52.710;6.398;2023-06-14T03:40:28;6.13;;;2.72;;
52124;SDS011;38119;52.710;6.398;2023-06-14T03:42:54;8.15;;;2.78;;
52124;SDS011;38119;52.710;6.398;2023-06-14T03:45:20;7.93;;;2.80;;
52124;SDS011;38119;52.710;6.398;2023-06-14T03:47:46;5.70;;;2.75;;
52124;SDS011;38119;52.710;6.398;2023-06-14T03:50:12;7.35;;;2.92;;
52124;SDS011;38119;52.710;6.398;2023-06-14T03:52:37;10.30;;;2.92;;
52124;SDS011;38119;52.710;6.398;2023-06-14T03:55:03;7.20;;;3.33;;
52124;SDS011;38119;52.710;6.398;2023-06-14T03:57:30;9.85;;;3.00;;
52124;SDS011;38119;52.710;6.398;2023-06-14T03:59:55;6.03;;;2.67;;
52124;SDS011;38119;52.710;6.398;2023-06-14T04:02:21;5.70;;;2.88;;
52124;SDS011;38119;52.710;6.398;2023-06-14T04:04:47;4.63;;;2.58;;
52124;SDS011;38119;52.710;6.398;2023-06-14T04:07:14;7.93;;;2.70;;
52124;SDS011;38119;52.710;6.398;2023-06-14T04:09:40;5.28;;;3.10;;
52124;SDS011;38119;52.710;6.398;2023-06-14T04:12:06;5.97;;;2.85;;
52124;SDS011;38119;52.710;6.398;2023-06-14T04:14:36;9.32;;;3.40;;
52124;SDS011;38119;52.710;6.398;2023-06-14T04:17:02;4.85;;;2.95;;
52124;SDS011;38119;52.710;6.398;2023-06-14T04:19:28;5.65;;;3.35;;
52124;SDS011;38119;52.710;6.398;2023-06-14T04:21:54;5.28;;;3.22;;
52124;SDS011;38119;52.710;6.398;2023-06-14T04:24:20;5.32;;;2.90;;
52124;SDS011;38119;52.710;6.398;2023-06-14T04:26:45;5.68;;;2.65;;
52124;SDS011;38119;52.710;6.398;2023-06-14T04:29:13;9.27;;;3.47;;
52124;SDS011;38119;52.710;6.398;2023-06-14T04:31:41;8.90;;;3.08;;
52124;SDS011;38119;52.710;6.398;2023-06-14T04:34:07;6.20;;;3.13;;
52124;SDS011;38119;52.710;6.398;2023-06-14T04:36:33;7.72;;;2.97;;
52124;SDS011;38119;52.710;6.398;2023-06-14T04:39:02;8.35;;;2.97;;
52124;SDS011;38119;52.710;6.398;2023-06-14T04:41:31;10.35;;;3.17;;
52124;SDS011;38119;52.710;6.398;2023-06-14T04:44:00;7.50;;;3.50;;
52124;SDS011;38119;52.710;6.398;2023-06-14T04:46:29;9.38;;;3.38;;
52124;SDS011;38119;52.710;6.398;2023-06-14T04:48:55;5.20;;;3.03;;
52124;SDS011;38119;52.710;6.398;2023-06-14T04:51:21;11.10;;;3.22;;
52124;SDS011;38119;52.710;6.398;2023-06-14T04:53:55;6.57;;;3.13;;
52124;SDS011;38119;52.710;6.398;2023-06-14T04:56:24;10.43;;;3.22;;
52124;SDS011;38119;52.710;6.398;2023-06-14T04:58:51;5.82;;;3.15;;
52124;SDS011;38119;52.710;6.398;2023-06-14T05:01:18;6.57;;;3.00;;
52124;SDS011;38119;52.710;6.398;2023-06-14T05:03:43;7.25;;;2.95;;
52124;SDS011;38119;52.710;6.398;2023-06-14T05:06:10;7.20;;;3.42;;
52124;SDS011;38119;52.710;6.398;2023-06-14T05:08:37;5.30;;;3.10;;
52124;SDS011;38119;52.710;6.398;2023-06-14T05:11:02;6.05;;;3.53;;
52124;SDS011;38119;52.710;6.398;2023-06-14T05:13:28;6.63;;;3.30;;
52124;SDS011;38119;52.710;6.398;2023-06-14T05:15:53;7.90;;;3.70;;
52124;SDS011;38119;52.710;6.398;2023-06-14T05:18:19;6.15;;;3.28;;
52124;SDS011;38119;52.710;6.398;2023-06-14T05:20:45;7.55;;;4.00;;
52124;SDS011;38119;52.710;6.398;2023-06-14T05:23:11;5.30;;;2.97;;
52124;SDS011;38119;52.710;6.398;2023-06-14T05:25:44;8.95;;;3.35;;
52124;SDS011;38119;52.710;6.398;2023-06-14T05:28:10;6.03;;;3.15;;
52124;SDS011;38119;52.710;6.398;2023-06-14T05:30:40;8.80;;;3.47;;
52124;SDS011;38119;52.710;6.398;2023-06-14T05:33:05;6.35;;;3.20;;
52124;SDS011;38119;52.710;6.398;2023-06-14T05:35:31;7.30;;;3.58;;
52124;SDS011;38119;52.710;6.398;2023-06-14T05:37:57;7.13;;;3.63;;
52124;SDS011;38119;52.710;6.398;2023-06-14T05:40:22;9.15;;;3.65;;
52124;SDS011;38119;52.710;6.398;2023-06-14T05:42:48;6.20;;;3.60;;
52124;SDS011;38119;52.710;6.398;2023-06-14T05:45:14;6.95;;;3.22;;
52124;SDS011;38119;52.710;6.398;2023-06-14T05:47:41;6.18;;;3.45;;
52124;SDS011;38119;52.710;6.398;2023-06-14T05:50:06;6.97;;;3.60;;
52124;SDS011;38119;52.710;6.398;2023-06-14T05:52:33;6.20;;;3.55;;
52124;SDS011;38119;52.710;6.398;2023-06-14T05:54:59;6.15;;;3.45;;
52124;SDS011;38119;52.710;6.398;2023-06-14T05:57:25;6.32;;;3.40;;
52124;SDS011;38119;52.710;6.398;2023-06-14T05:59:50;4.47;;;3.10;;
52124;SDS011;38119;52.710;6.398;2023-06-14T06:02:16;5.63;;;3.60;;
52124;SDS011;38119;52.710;6.398;2023-06-14T06:04:42;5.93;;;2.95;;
52124;SDS011;38119;52.710;6.398;2023-06-14T06:07:07;6.43;;;2.90;;
52124;SDS011;38119;52.710;6.398;2023-06-14T06:09:33;6.38;;;3.40;;
52124;SDS011;38119;52.710;6.398;2023-06-14T06:11:58;6.93;;;3.47;;
52124;SDS011;38119;52.710;6.398;2023-06-14T06:14:24;6.28;;;3.13;;
52124;SDS011;38119;52.710;6.398;2023-06-14T06:16:50;7.68;;;3.75;;
52124;SDS011;38119;52.710;6.398;2023-06-14T06:19:17;11.13;;;3.60;;
52124;SDS011;38119;52.710;6.398;2023-06-14T06:21:43;7.35;;;3.60;;
52124;SDS011;38119;52.710;6.398;2023-06-14T06:24:09;9.13;;;3.28;;
52124;SDS011;38119;52.710;6.398;2023-06-14T06:26:34;5.80;;;3.33;;
52124;SDS011;38119;52.710;6.398;2023-06-14T06:29:00;7.70;;;3.17;;
52124;SDS011;38119;52.710;6.398;2023-06-14T06:31:26;5.03;;;2.83;;
52124;SDS011;38119;52.710;6.398;2023-06-14T06:33:52;6.10;;;3.28;;
52124;SDS011;38119;52.710;6.398;2023-06-14T06:36:21;6.43;;;3.40;;
52124;SDS011;38119;52.710;6.398;2023-06-14T06:38:47;8.85;;;3.22;;
52124;SDS011;38119;52.710;6.398;2023-06-14T06:41:13;5.82;;;3.13;;
52124;SDS011;38119;52.710;6.398;2023-06-14T06:43:38;5.68;;;3.20;;
52124;SDS011;38119;52.710;6.398;2023-06-14T06:46:04;6.68;;;2.95;;
52124;SDS011;38119;52.710;6.398;2023-06-14T06:48:30;9.32;;;3.75;;
52124;SDS011;38119;52.710;6.398;2023-06-14T06:50:55;6.63;;;3.75;;
52124;SDS011;38119;52.710;6.398;2023-06-14T06:53:21;5.53;;;2.70;;
52124;SDS011;38119;52.710;6.398;2023-06-14T06:55:47;6.75;;;3.15;;
52124;SDS011;38119;52.710;6.398;2023-06-14T06:58:13;6.03;;;2.85;;
52124;SDS011;38119;52.710;6.398;2023-06-14T07:00:39;4.50;;;2.70;;
52124;SDS011;38119;52.710;6.398;2023-06-14T07:03:05;5.53;;;3.00;;
52124;SDS011;38119;52.710;6.398;2023-06-14T07:05:30;4.63;;;2.55;;
52124;SDS011;38119;52.710;6.398;2023-06-14T07:07:57;6.97;;;2.65;;
52124;SDS011;38119;52.710;6.398;2023-06-14T07:10:23;4.55;;;2.47;;
52124;SDS011;38119;52.710;6.398;2023-06-14T07:12:49;4.97;;;2.50;;
52124;SDS011;38119;52.710;6.398;2023-06-14T07:15:15;7.65;;;2.67;;
52124;SDS011;38119;52.710;6.398;2023-06-14T07:17:41;6.32;;;2.65;;
52124;SDS011;38119;52.710;6.398;2023-06-14T07:20:07;5.82;;;2.60;;
52124;SDS011;38119;52.710;6.398;2023-06-14T07:22:40;6.50;;;2.80;;
52124;SDS011;38119;52.710;6.398;2023-06-14T07:25:10;7.50;;;2.70;;
52124;SDS011;38119;52.710;6.398;2023-06-14T07:27:42;7.50;;;2.63;;
52124;SDS011;38119;52.710;6.398;2023-06-14T07:30:09;6.00;;;2.70;;
52124;SDS011;38119;52.710;6.398;2023-06-14T07:32:35;6.90;;;2.85;;
52124;SDS011;38119;52.710;6.398;2023-06-14T07:35:01;5.32;;;2.60;;
52124;SDS011;38119;52.710;6.398;2023-06-14T07:37:28;5.53;;;2.53;;
52124;SDS011;38119;52.710;6.398;2023-06-14T07:39:53;4.00;;;2.78;;
52124;SDS011;38119;52.710;6.398;2023-06-14T07:42:19;7.00;;;3.08;;
52124;SDS011;38119;52.710;6.398;2023-06-14T07:44:45;4.70;;;2.72;;
52124;SDS011;38119;52.710;6.398;2023-06-14T07:47:10;6.15;;;2.80;;
52124;SDS011;38119;52.710;6.398;2023-06-14T07:49:36;3.88;;;2.67;;
52124;SDS011;38119;52.710;6.398;2023-06-14T07:52:02;4.22;;;2.70;;
52124;SDS011;38119;52.710;6.398;2023-06-14T07:54:28;5.00;;;2.40;;
52124;SDS011;38119;52.710;6.398;2023-06-14T07:56:54;4.25;;;2.50;;
52124;SDS011;38119;52.710;6.398;2023-06-14T07:59:21;6.15;;;2.65;;
52124;SDS011;38119;52.710;6.398;2023-06-14T08:01:46;5.78;;;2.53;;
52124;SDS011;38119;52.710;6.398;2023-06-14T08:04:16;5.88;;;2.85;;
52124;SDS011;38119;52.710;6.398;2023-06-14T08:06:41;7.32;;;2.80;;
52124;SDS011;38119;52.710;6.398;2023-06-14T08:09:10;4.03;;;2.47;;
52124;SDS011;38119;52.710;6.398;2023-06-14T08:11:37;6.90;;;2.50;;
52124;SDS011;38119;52.710;6.398;2023-06-14T08:14:03;6.20;;;2.60;;
52124;SDS011;38119;52.710;6.398;2023-06-14T08:16:29;5.55;;;2.53;;
52124;SDS011;38119;52.710;6.398;2023-06-14T08:18:55;5.93;;;2.25;;
52124;SDS011;38119;52.710;6.398;2023-06-14T08:21:21;4.85;;;2.58;;
52124;SDS011;38119;52.710;6.398;2023-06-14T08:23:47;6.07;;;2.63;;
52124;SDS011;38119;52.710;6.398;2023-06-14T08:26:12;5.45;;;2.60;;
52124;SDS011;38119;52.710;6.398;2023-06-14T08:28:38;9.98;;;2.65;;
52124;SDS011;38119;52.710;6.398;2023-06-14T08:31:04;6.90;;;2.90;;
52124;SDS011;38119;52.710;6.398;2023-06-14T08:33:30;8.90;;;2.50;;
52124;SDS011;38119;52.710;6.398;2023-06-14T08:35:58;5.97;;;2.38;;
52124;SDS011;38119;52.710;6.398;2023-06-14T08:38:24;6.20;;;2.58;;
52124;SDS011;38119;52.710;6.398;2023-06-14T08:40:50;7.53;;;2.60;;
52124;SDS011;38119;52.710;6.398;2023-06-14T08:45:47;4.47;;;2.17;;
52124;SDS011;38119;52.710;6.398;2023-06-14T08:48:18;6.18;;;2.35;;
52124;SDS011;38119;52.710;6.398;2023-06-14T08:50:46;5.00;;;2.08;;
52124;SDS011;38119;52.710;6.398;2023-06-14T08:53:13;3.67;;;2.20;;
52124;SDS011;38119;52.710;6.398;2023-06-14T08:55:41;3.35;;;2.22;;
52124;SDS011;38119;52.710;6.398;2023-06-14T08:58:08;3.20;;;1.90;;
52124;SDS011;38119;52.710;6.398;2023-06-14T09:00:34;5.70;;;2.40;;
52124;SDS011;38119;52.710;6.398;2023-06-14T09:03:02;5.25;;;2.15;;
52124;SDS011;38119;52.710;6.398;2023-06-14T09:05:28;3.40;;;2.10;;
52124;SDS011;38119;52.710;6.398;2023-06-14T09:07:54;7.07;;;2.33;;
52124;SDS011;38119;52.710;6.398;2023-06-14T09:10:20;5.15;;;2.20;;
52124;SDS011;38119;52.710;6.398;2023-06-14T09:12:46;3.70;;;1.95;;
52124;SDS011;38119;52.710;6.398;2023-06-14T09:15:12;5.93;;;2.00;;
52124;SDS011;38119;52.710;6.398;2023-06-14T09:17:39;3.75;;;2.30;;
52124;SDS011;38119;52.710;6.398;2023-06-14T09:20:05;3.10;;;2.10;;
52124;SDS011;38119;52.710;6.398;2023-06-14T09:22:34;4.75;;;2.03;;
52124;SDS011;38119;52.710;6.398;2023-06-14T09:25:00;4.07;;;2.00;;
52124;SDS011;38119;52.710;6.398;2023-06-14T09:27:26;5.93;;;1.90;;
52124;SDS011;38119;52.710;6.398;2023-06-14T09:29:53;4.20;;;2.10;;
52124;SDS011;38119;52.710;6.398;2023-06-14T09:32:19;2.85;;;1.80;;
52124;SDS011;38119;52.710;6.398;2023-06-14T09:34:48;5.78;;;2.42;;
52124;SDS011;38119;52.710;6.398;2023-06-14T09:37:35;6.60;;;2.00;;
52124;SDS011;38119;52.710;6.398;2023-06-14T09:40:00;4.68;;;2.10;;
52124;SDS011;38119;52.710;6.398;2023-06-14T09:42:26;3.80;;;2.10;;
52124;SDS011;38119;52.710;6.398;2023-06-14T09:44:53;5.30;;;2.10;;
52124;SDS011;38119;52.710;6.398;2023-06-14T09:47:20;1.92;;;1.65;;
52124;SDS011;38119;52.710;6.398;2023-06-14T09:49:47;4.53;;;2.10;;
52124;SDS011;38119;52.710;6.398;2023-06-14T09:52:17;11.50;;;2.22;;
52124;SDS011;38119;52.710;6.398;2023-06-14T09:54:44;2.87;;;2.00;;
52124;SDS011;38119;52.710;6.398;2023-06-14T09:57:15;5.45;;;1.95;;
52124;SDS011;38119;52.710;6.398;2023-06-14T09:59:42;1.73;;;1.60;;
52124;SDS011;38119;52.710;6.398;2023-06-14T10:02:34;10.52;;;2.10;;
52124;SDS011;38119;52.710;6.398;2023-06-14T10:05:03;3.70;;;1.65;;
52124;SDS011;38119;52.710;6.398;2023-06-14T10:07:32;2.92;;;1.73;;
52124;SDS011;38119;52.710;6.398;2023-06-14T10:10:09;2.08;;;1.75;;
52124;SDS011;38119;52.710;6.398;2023-06-14T10:12:36;4.00;;;2.05;;
52124;SDS011;38119;52.710;6.398;2023-06-14T10:15:02;3.30;;;1.63;;
52124;SDS011;38119;52.710;6.398;2023-06-14T10:17:39;3.70;;;1.65;;
52124;SDS011;38119;52.710;6.398;2023-06-14T10:22:47;2.88;;;1.60;;
52124;SDS011;38119;52.710;6.398;2023-06-14T10:25:28;3.75;;;1.70;;
52124;SDS011;38119;52.710;6.398;2023-06-14T10:33:34;7.97;;;2.47;;
52124;SDS011;38119;52.710;6.398;2023-06-14T10:36:07;5.28;;;2.03;;
52124;SDS011;38119;52.710;6.398;2023-06-14T10:41:36;6.78;;;2.30;;
52124;SDS011;38119;52.710;6.398;2023-06-14T10:46:37;3.85;;;1.77;;
52124;SDS011;38119;52.710;6.398;2023-06-14T10:49:03;2.60;;;1.65;;
52124;SDS011;38119;52.710;6.398;2023-06-14T10:51:30;5.03;;;1.90;;
52124;SDS011;38119;52.710;6.398;2023-06-14T10:54:11;5.85;;;1.80;;
52124;SDS011;38119;52.710;6.398;2023-06-14T10:56:47;2.88;;;1.73;;
52124;SDS011;38119;52.710;6.398;2023-06-14T10:59:14;7.68;;;1.90;;
52124;SDS011;38119;52.710;6.398;2023-06-14T11:04:50;1.80;;;1.70;;
52124;SDS011;38119;52.710;6.398;2023-06-14T11:07:34;5.15;;;1.70;;
52124;SDS011;38119;52.710;6.398;2023-06-14T11:12:50;2.60;;;1.80;;
52124;SDS011;38119;52.710;6.398;2023-06-14T11:15:19;3.33;;;1.80;;
52124;SDS011;38119;52.710;6.398;2023-06-14T11:17:51;4.97;;;1.90;;
52124;SDS011;38119;52.710;6.398;2023-06-14T11:20:23;5.70;;;1.80;;
52124;SDS011;38119;52.710;6.398;2023-06-14T11:22:51;10.13;;;2.10;;
52124;SDS011;38119;52.710;6.398;2023-06-14T11:25:17;7.63;;;1.90;;
52124;SDS011;38119;52.710;6.398;2023-06-14T11:27:43;3.50;;;1.77;;
52124;SDS011;38119;52.710;6.398;2023-06-14T11:30:09;3.90;;;1.92;;
52124;SDS011;38119;52.710;6.398;2023-06-14T11:32:36;6.38;;;2.10;;
52124;SDS011;38119;52.710;6.398;2023-06-14T11:35:02;2.85;;;1.77;;
52124;SDS011;38119;52.710;6.398;2023-06-14T11:37:29;5.45;;;1.85;;
52124;SDS011;38119;52.710;6.398;2023-06-14T11:39:59;3.50;;;2.08;;
52124;SDS011;38119;52.710;6.398;2023-06-14T11:42:28;3.58;;;1.95;;
52124;SDS011;38119;52.710;6.398;2023-06-14T11:44:54;1.98;;;1.80;;
52124;SDS011;38119;52.710;6.398;2023-06-14T11:47:20;4.50;;;1.83;;
52124;SDS011;38119;52.710;6.398;2023-06-14T11:49:46;4.35;;;1.83;;
52124;SDS011;38119;52.710;6.398;2023-06-14T11:52:12;5.10;;;1.80;;
52124;SDS011;38119;52.710;6.398;2023-06-14T11:54:38;4.47;;;1.85;;
52124;SDS011;38119;52.710;6.398;2023-06-14T11:57:06;3.97;;;1.90;;
52124;SDS011;38119;52.710;6.398;2023-06-14T11:59:42;4.57;;;1.80;;
52124;SDS011;38119;52.710;6.398;2023-06-14T12:02:09;6.72;;;2.10;;
52124;SDS011;38119;52.710;6.398;2023-06-14T12:04:40;4.57;;;2.03;;
52124;SDS011;38119;52.710;6.398;2023-06-14T12:07:13;8.23;;;1.80;;
52124;SDS011;38119;52.710;6.398;2023-06-14T12:12:18;5.55;;;2.03;;
52124;SDS011;38119;52.710;6.398;2023-06-14T12:14:46;2.58;;;1.90;;
52124;SDS011;38119;52.710;6.398;2023-06-14T12:17:13;2.55;;;2.05;;
52124;SDS011;38119;52.710;6.398;2023-06-14T12:19:42;4.07;;;1.98;;
52124;SDS011;38119;52.710;6.398;2023-06-14T12:22:12;10.63;;;3.03;;
52124;SDS011;38119;52.710;6.398;2023-06-14T12:24:38;4.10;;;1.85;;
52124;SDS011;38119;52.710;6.398;2023-06-14T12:27:07;4.80;;;2.60;;
52124;SDS011;38119;52.710;6.398;2023-06-14T12:29:33;6.35;;;2.05;;
52124;SDS011;38119;52.710;6.398;2023-06-14T12:31:59;3.70;;;2.00;;
52124;SDS011;38119;52.710;6.398;2023-06-14T12:34:24;4.38;;;2.00;;
52124;SDS011;38119;52.710;6.398;2023-06-14T12:36:52;3.83;;;1.80;;
52124;SDS011;38119;52.710;6.398;2023-06-14T12:39:18;3.25;;;1.98;;
52124;SDS011;38119;52.710;6.398;2023-06-14T12:41:45;3.70;;;2.08;;
52124;SDS011;38119;52.710;6.398;2023-06-14T12:44:11;5.88;;;2.05;;
52124;SDS011;38119;52.710;6.398;2023-06-14T12:46:37;4.15;;;2.03;;
52124;SDS011;38119;52.710;6.398;2023-06-14T12:49:04;5.03;;;1.83;;
52124;SDS011;38119;52.710;6.398;2023-06-14T12:51:32;5.38;;;2.05;;
52124;SDS011;38119;52.710;6.398;2023-06-14T12:53:57;3.80;;;2.00;;
52124;SDS011;38119;52.710;6.398;2023-06-14T12:56:23;3.13;;;1.83;;
52124;SDS011;38119;52.710;6.398;2023-06-14T12:58:48;3.58;;;1.90;;
52124;SDS011;38119;52.710;6.398;2023-06-14T13:01:14;3.40;;;1.95;;
52124;SDS011;38119;52.710;6.398;2023-06-14T13:03:40;7.25;;;2.30;;
52124;SDS011;38119;52.710;6.398;2023-06-14T13:06:05;7.82;;;2.35;;
52124;SDS011;38119;52.710;6.398;2023-06-14T13:08:31;2.55;;;1.60;;
52124;SDS011;38119;52.710;6.398;2023-06-14T13:10:57;2.80;;;2.00;;
52124;SDS011;38119;52.710;6.398;2023-06-14T13:13:22;2.90;;;1.80;;
52124;SDS011;38119;52.710;6.398;2023-06-14T13:15:48;3.25;;;1.90;;
52124;SDS011;38119;52.710;6.398;2023-06-14T13:18:15;5.40;;;2.30;;
52124;SDS011;38119;52.710;6.398;2023-06-14T13:20:40;4.70;;;1.75;;
52124;SDS011;38119;52.710;6.398;2023-06-14T13:23:07;6.25;;;1.95;;
52124;SDS011;38119;52.710;6.398;2023-06-14T13:25:34;2.25;;;1.75;;
52124;SDS011;38119;52.710;6.398;2023-06-14T13:28:01;5.75;;;1.90;;
52124;SDS011;38119;52.710;6.398;2023-06-14T13:30:27;4.88;;;1.75;;
52124;SDS011;38119;52.710;6.398;2023-06-14T13:32:53;3.00;;;1.90;;
52124;SDS011;38119;52.710;6.398;2023-06-14T13:35:19;2.10;;;1.90;;
52124;SDS011;38119;52.710;6.398;2023-06-14T13:37:44;4.45;;;1.80;;
52124;SDS011;38119;52.710;6.398;2023-06-14T13:40:10;3.92;;;2.05;;
52124;SDS011;38119;52.710;6.398;2023-06-14T13:42:37;4.47;;;1.85;;
52124;SDS011;38119;52.710;6.398;2023-06-14T13:45:02;2.92;;;1.80;;
52124;SDS011;38119;52.710;6.398;2023-06-14T13:47:29;2.80;;;1.98;;
52124;SDS011;38119;52.710;6.398;2023-06-14T13:49:56;4.63;;;1.80;;
52124;SDS011;38119;52.710;6.398;2023-06-14T13:52:21;3.95;;;1.95;;
52124;SDS011;38119;52.710;6.398;2023-06-14T13:54:47;2.67;;;1.77;;
52124;SDS011;38119;52.710;6.398;2023-06-14T13:57:13;4.00;;;1.83;;
52124;SDS011;38119;52.710;6.398;2023-06-14T13:59:39;3.47;;;1.92;;
52124;SDS011;38119;52.710;6.398;2023-06-14T14:02:06;5.90;;;2.17;;
52124;SDS011;38119;52.710;6.398;2023-06-14T14:04:32;2.47;;;1.75;;
52124;SDS011;38119;52.710;6.398;2023-06-14T14:06:59;6.75;;;1.92;;
52124;SDS011;38119;52.710;6.398;2023-06-14T14:09:25;4.55;;;1.92;;
52124;SDS011;38119;52.710;6.398;2023-06-14T14:11:50;2.95;;;1.63;;
52124;SDS011;38119;52.710;6.398;2023-06-14T14:14:16;3.65;;;2.10;;
52124;SDS011;38119;52.710;6.398;2023-06-14T14:16:42;4.90;;;2.00;;
52124;SDS011;38119;52.710;6.398;2023-06-14T14:19:07;4.60;;;2.00;;
52124;SDS011;38119;52.710;6.398;2023-06-14T14:21:33;2.38;;;1.80;;
52124;SDS011;38119;52.710;6.398;2023-06-14T14:23:58;4.82;;;1.95;;
52124;SDS011;38119;52.710;6.398;2023-06-14T14:26:25;4.07;;;1.80;;
52124;SDS011;38119;52.710;6.398;2023-06-14T14:28:51;6.63;;;1.80;;
52124;SDS011;38119;52.710;6.398;2023-06-14T14:31:17;4.72;;;1.80;;
52124;SDS011;38119;52.710;6.398;2023-06-14T14:33:43;4.20;;;1.83;;
52124;SDS011;38119;52.710;6.398;2023-06-14T14:36:09;3.83;;;1.75;;
52124;SDS011;38119;52.710;6.398;2023-06-14T14:38:34;5.65;;;2.42;;
52124;SDS011;38119;52.710;6.398;2023-06-14T14:41:00;2.42;;;1.70;;
52124;SDS011;38119;52.710;6.398;2023-06-14T14:43:26;4.93;;;1.75;;
52124;SDS011;38119;52.710;6.398;2023-06-14T14:45:52;3.78;;;1.85;;
52124;SDS011;38119;52.710;6.398;2023-06-14T14:48:17;2.20;;;1.67;;
52124;SDS011;38119;52.710;6.398;2023-06-14T14:50:43;4.53;;;2.08;;
52124;SDS011;38119;52.710;6.398;2023-06-14T14:53:08;3.40;;;1.70;;
52124;SDS011;38119;52.710;6.398;2023-06-14T14:55:34;4.20;;;1.60;;
52124;SDS011;38119;52.710;6.398;2023-06-14T14:58:02;2.90;;;2.05;;
52124;SDS011;38119;52.710;6.398;2023-06-14T15:00:28;3.50;;;1.88;;
52124;SDS011;38119;52.710;6.398;2023-06-14T15:02:54;4.30;;;1.90;;
52124;SDS011;38119;52.710;6.398;2023-06-14T15:05:19;4.35;;;1.80;;
52124;SDS011;38119;52.710;6.398;2023-06-14T15:07:45;3.45;;;1.90;;
52124;SDS011;38119;52.710;6.398;2023-06-14T15:10:11;3.00;;;1.90;;
52124;SDS011;38119;52.710;6.398;2023-06-14T15:12:37;4.13;;;1.80;;
52124;SDS011;38119;52.710;6.398;2023-06-14T15:15:03;2.28;;;1.90;;
52124;SDS011;38119;52.710;6.398;2023-06-14T15:17:29;3.55;;;1.85;;